sensor_id;sensor_type;location;lat;lon;timestamp;temperature;humidity
9265;DHT22;4669;49.594;10.958;2022-12-07T05:29:34;3.10;99.90
9265;DHT22;4669;49.594;10.958;2022-12-07T05:34:36;3.20;99.90
9265;DHT22;4669;49.594;10.958;2022-12-07T05:39:38;3.20;99.90
9265;DHT22;4669;49.594;10.958;2022-12-07T05:44:45;3.10;99.90
9265;DHT22;4669;49.594;10.958;2022-12-07T05:49:47;3.10;99.90
9265;DHT22;4669;49.594;10.958;2022-12-07T05:54:49;3.10;99.90
9265;DHT22;4669;49.594;10.958;2022-12-07T05:59:53;3.10;99.90
9265;DHT22;4669;49.594;10.958;2022-12-07T06:04:55;3.20;99.90
9265;DHT22;4669;49.594;10.958;2022-12-07T06:09:57;3.20;99.90
9265;DHT22;4669;49.594;10.958;2022-12-07T06:15:01;3.20;99.90
9265;DHT22;4669;49.594;10.958;2022-12-07T06:20:03;3.20;99.90
9265;DHT22;4669;49.594;10.958;2022-12-07T06:25:06;3.10;99.90
9265;DHT22;4669;49.594;10.958;2022-12-07T06:30:11;3.10;99.90
9265;DHT22;4669;49.594;10.958;2022-12-07T06:35:13;3.20;99.90
9265;DHT22;4669;49.594;10.958;2022-12-07T06:40:15;3.10;99.90
9265;DHT22;4669;49.594;10.958;2022-12-07T06:45:18;3.00;99.90
9265;DHT22;4669;49.594;10.958;2022-12-07T06:50:20;3.00;99.90
9265;DHT22;4669;49.594;10.958;2022-12-07T06:55:22;3.10;99.90
9265;DHT22;4669;49.594;10.958;2022-12-07T07:00:26;3.20;99.90
9265;DHT22;4669;49.594;10.958;2022-12-07T07:05:28;3.10;99.90
9265;DHT22;4669;49.594;10.958;2022-12-07T07:10:30;3.30;99.90
9265;DHT22;4669;49.594;10.958;2022-12-07T07:15:34;3.30;99.90
9265;DHT22;4669;49.594;10.958;2022-12-07T07:20:37;3.20;99.90
9265;DHT22;4669;49.594;10.958;2022-12-07T07:25:39;3.30;99.90
9265;DHT22;4669;49.594;10.958;2022-12-07T07:30:42;3.30;99.90
9265;DHT22;4669;49.594;10.958;2022-12-07T07:35:45;3.40;99.90
9265;DHT22;4669;49.594;10.958;2022-12-07T07:40:47;3.40;99.90
9265;DHT22;4669;49.594;10.958;2022-12-07T07:45:50;3.40;99.90
9265;DHT22;4669;49.594;10.958;2022-12-07T07:50:52;3.30;99.90
9265;DHT22;4669;49.594;10.958;2022-12-07T07:55:54;3.40;99.90
9265;DHT22;4669;49.594;10.958;2022-12-07T08:01:03;3.40;99.90
9265;DHT22;4669;49.594;10.958;2022-12-07T08:06:05;3.40;99.90
9265;DHT22;4669;49.594;10.958;2022-12-07T08:11:08;3.40;99.90
9265;DHT22;4669;49.594;10.958;2022-12-07T08:16:12;3.50;99.90
9265;DHT22;4669;49.594;10.958;2022-12-07T08:21:16;3.50;99.90
9265;DHT22;4669;49.594;10.958;2022-12-07T08:26:18;3.60;99.90
9265;DHT22;4669;49.594;10.958;2022-12-07T08:31:21;3.60;99.90
9265;DHT22;4669;49.594;10.958;2022-12-07T08:36:23;3.60;99.90
9265;DHT22;4669;49.594;10.958;2022-12-07T08:41:25;3.60;99.90
9265;DHT22;4669;49.594;10.958;2022-12-07T08:46:33;3.70;99.90
9265;DHT22;4669;49.594;10.958;2022-12-07T08:51:38;3.60;99.90
9265;DHT22;4669;49.594;10.958;2022-12-07T08:56:41;3.60;99.90
9265;DHT22;4669;49.594;10.958;2022-12-07T09:01:45;3.60;99.90
9265;DHT22;4669;49.594;10.958;2022-12-07T09:06:47;3.60;99.90
9265;DHT22;4669;49.594;10.958;2022-12-07T09:11:49;3.70;99.90
9265;DHT22;4669;49.594;10.958;2022-12-07T09:16:53;3.70;99.90
9265;DHT22;4669;49.594;10.958;2022-12-07T09:21:57;3.80;99.90
9265;DHT22;4669;49.594;10.958;2022-12-07T09:26:59;3.70;99.90
9265;DHT22;4669;49.594;10.958;2022-12-07T09:32:02;3.70;99.90
9265;DHT22;4669;49.594;10.958;2022-12-07T09:37:04;3.70;99.90
9265;DHT22;4669;49.594;10.958;2022-12-07T09:42:08;3.70;99.90
9265;DHT22;4669;49.594;10.958;2022-12-07T09:47:20;3.70;99.90
9265;DHT22;4669;49.594;10.958;2022-12-07T09:52:26;3.70;99.90
9265;DHT22;4669;49.594;10.958;2022-12-07T09:57:31;3.80;99.90
9265;DHT22;4669;49.594;10.958;2022-12-07T10:02:39;3.90;99.90
9265;DHT22;4669;49.594;10.958;2022-12-07T10:07:43;3.90;99.90
9265;DHT22;4669;49.594;10.958;2022-12-07T10:12:54;3.90;99.90
9265;DHT22;4669;49.594;10.958;2022-12-07T10:17:58;3.90;99.90
9265;DHT22;4669;49.594;10.958;2022-12-07T10:23:02;3.90;99.90
9265;DHT22;4669;49.594;10.958;2022-12-07T10:28:14;4.00;99.90
9265;DHT22;4669;49.594;10.958;2022-12-07T10:33:35;4.10;99.90
9265;DHT22;4669;49.594;10.958;2022-12-07T10:38:44;4.00;99.90
9265;DHT22;4669;49.594;10.958;2022-12-07T10:43:50;4.00;99.90
9265;DHT22;4669;49.594;10.958;2022-12-07T10:49:01;4.00;99.90
9265;DHT22;4669;49.594;10.958;2022-12-07T10:54:11;4.10;99.90
9265;DHT22;4669;49.594;10.958;2022-12-07T10:59:47;4.20;99.90
9265;DHT22;4669;49.594;10.958;2022-12-07T11:05:02;4.10;99.90
9265;DHT22;4669;49.594;10.958;2022-12-07T11:10:13;4.10;99.90
9265;DHT22;4669;49.594;10.958;2022-12-07T11:15:21;4.20;99.90
9265;DHT22;4669;49.594;10.958;2022-12-07T11:20:37;4.10;99.90
9265;DHT22;4669;49.594;10.958;2022-12-07T11:25:49;4.20;99.90
9265;DHT22;4669;49.594;10.958;2022-12-07T11:30:59;4.10;99.90
9265;DHT22;4669;49.594;10.958;2022-12-07T11:36:17;4.20;99.90
9265;DHT22;4669;49.594;10.958;2022-12-07T11:41:28;4.20;99.90
9265;DHT22;4669;49.594;10.958;2022-12-07T11:46:42;4.20;99.90
9265;DHT22;4669;49.594;10.958;2022-12-07T11:51:50;4.30;99.90
9265;DHT22;4669;49.594;10.958;2022-12-07T11:56:56;4.20;99.90
9265;DHT22;4669;49.594;10.958;2022-12-07T12:02:12;4.30;99.90
9265;DHT22;4669;49.594;10.958;2022-12-07T12:07:23;4.20;99.90
9265;DHT22;4669;49.594;10.958;2022-12-07T12:12:45;4.20;99.90
9265;DHT22;4669;49.594;10.958;2022-12-07T12:18:14;4.20;99.90
9265;DHT22;4669;49.594;10.958;2022-12-07T12:23:23;4.20;99.90
9265;DHT22;4669;49.594;10.958;2022-12-07T12:28:29;4.30;99.90
9265;DHT22;4669;49.594;10.958;2022-12-07T12:33:33;4.20;99.90
9265;DHT22;4669;49.594;10.958;2022-12-07T12:38:51;4.30;99.90
9265;DHT22;4669;49.594;10.958;2022-12-07T12:43:54;4.30;99.90
9265;DHT22;4669;49.594;10.958;2022-12-07T12:48:57;4.30;99.90
9265;DHT22;4669;49.594;10.958;2022-12-07T12:54:22;4.30;99.90
9265;DHT22;4669;49.594;10.958;2022-12-07T12:59:28;4.30;99.90
9265;DHT22;4669;49.594;10.958;2022-12-07T13:04:52;4.30;99.90
9265;DHT22;4669;49.594;10.958;2022-12-07T13:09:56;4.30;99.90
9265;DHT22;4669;49.594;10.958;2022-12-07T13:14:58;4.30;99.90
9265;DHT22;4669;49.594;10.958;2022-12-07T13:20:01;4.30;99.90
9265;DHT22;4669;49.594;10.958;2022-12-07T13:25:08;4.30;99.90
9265;DHT22;4669;49.594;10.958;2022-12-07T13:30:15;4.30;99.90
9265;DHT22;4669;49.594;10.958;2022-12-07T13:35:32;4.40;99.90
9265;DHT22;4669;49.594;10.958;2022-12-07T13:40:36;4.40;99.90
9265;DHT22;4669;49.594;10.958;2022-12-07T13:45:38;4.40;99.90
9265;DHT22;4669;49.594;10.958;2022-12-07T13:50:53;4.40;99.90
9265;DHT22;4669;49.594;10.958;2022-12-07T13:55:58;4.40;99.90
9265;DHT22;4669;49.594;10.958;2022-12-07T14:01:00;4.30;99.90
9265;DHT22;4669;49.594;10.958;2022-12-07T14:06:22;4.40;99.90
9265;DHT22;4669;49.594;10.958;2022-12-07T14:11:30;4.40;99.90
9265;DHT22;4669;49.594;10.958;2022-12-07T14:16:33;4.30;99.90
9265;DHT22;4669;49.594;10.958;2022-12-07T14:21:36;4.30;99.90
9265;DHT22;4669;49.594;10.958;2022-12-07T14:26:39;4.30;99.90
9265;DHT22;4669;49.594;10.958;2022-12-07T14:31:41;4.20;99.90
9265;DHT22;4669;49.594;10.958;2022-12-07T14:36:43;4.20;99.90
9265;DHT22;4669;49.594;10.958;2022-12-07T14:41:47;4.30;99.90
9265;DHT22;4669;49.594;10.958;2022-12-07T14:46:52;4.30;99.90
9265;DHT22;4669;49.594;10.958;2022-12-07T14:51:54;4.20;99.90
9265;DHT22;4669;49.594;10.958;2022-12-07T14:56:57;4.20;99.90
9265;DHT22;4669;49.594;10.958;2022-12-07T15:01:59;4.00;99.90
9265;DHT22;4669;49.594;10.958;2022-12-07T15:07:04;4.00;99.90
9265;DHT22;4669;49.594;10.958;2022-12-07T15:12:08;4.00;99.90
9265;DHT22;4669;49.594;10.958;2022-12-07T15:17:10;3.90;99.90
9265;DHT22;4669;49.594;10.958;2022-12-07T15:22:13;3.90;99.90
9265;DHT22;4669;49.594;10.958;2022-12-07T15:27:17;4.00;99.90
9265;DHT22;4669;49.594;10.958;2022-12-07T15:32:19;3.90;99.90
9265;DHT22;4669;49.594;10.958;2022-12-07T15:37:20;3.80;99.90
9265;DHT22;4669;49.594;10.958;2022-12-07T15:42:24;3.80;99.90
9265;DHT22;4669;49.594;10.958;2022-12-07T15:47:26;3.80;99.90
9265;DHT22;4669;49.594;10.958;2022-12-07T15:52:28;3.70;99.90
9265;DHT22;4669;49.594;10.958;2022-12-07T15:57:31;3.70;99.90
9265;DHT22;4669;49.594;10.958;2022-12-07T16:02:34;3.60;99.90
9265;DHT22;4669;49.594;10.958;2022-12-07T16:07:36;3.70;99.90
9265;DHT22;4669;49.594;10.958;2022-12-07T16:12:39;3.60;99.90
9265;DHT22;4669;49.594;10.958;2022-12-07T16:17:41;3.60;99.90
9265;DHT22;4669;49.594;10.958;2022-12-07T16:22:43;3.70;99.90
9265;DHT22;4669;49.594;10.958;2022-12-07T16:27:47;3.70;99.90
9265;DHT22;4669;49.594;10.958;2022-12-07T16:32:49;3.80;99.90
9265;DHT22;4669;49.594;10.958;2022-12-07T16:37:51;3.80;99.90
9265;DHT22;4669;49.594;10.958;2022-12-07T16:42:54;3.90;99.90
9265;DHT22;4669;49.594;10.958;2022-12-07T16:47:56;3.80;99.90
9265;DHT22;4669;49.594;10.958;2022-12-07T16:52:58;3.80;99.90
9265;DHT22;4669;49.594;10.958;2022-12-07T16:58:01;3.80;99.90
9265;DHT22;4669;49.594;10.958;2022-12-07T17:03:04;3.90;99.90
9265;DHT22;4669;49.594;10.958;2022-12-07T17:08:09;3.90;99.90
9265;DHT22;4669;49.594;10.958;2022-12-07T17:13:13;3.90;99.90
9265;DHT22;4669;49.594;10.958;2022-12-07T17:18:35;3.80;99.90
9265;DHT22;4669;49.594;10.958;2022-12-07T17:23:37;3.80;99.90
9265;DHT22;4669;49.594;10.958;2022-12-07T17:28:41;3.70;99.90
9265;DHT22;4669;49.594;10.958;2022-12-07T17:33:43;3.70;99.90
9265;DHT22;4669;49.594;10.958;2022-12-07T17:38:45;3.70;99.90
9265;DHT22;4669;49.594;10.958;2022-12-07T17:43:49;3.60;99.90
9265;DHT22;4669;49.594;10.958;2022-12-07T17:48:53;3.60;99.90
9265;DHT22;4669;49.594;10.958;2022-12-07T17:53:55;3.60;99.90
9265;DHT22;4669;49.594;10.958;2022-12-07T17:59:02;3.60;99.90
9265;DHT22;4669;49.594;10.958;2022-12-07T18:04:36;3.70;99.90
9265;DHT22;4669;49.594;10.958;2022-12-07T18:10:00;3.60;99.90
9265;DHT22;4669;49.594;10.958;2022-12-07T18:15:04;3.70;99.90
9265;DHT22;4669;49.594;10.958;2022-12-07T18:20:07;3.70;99.90
9265;DHT22;4669;49.594;10.958;2022-12-07T18:25:09;3.60;99.90
9265;DHT22;4669;49.594;10.958;2022-12-07T18:30:13;3.70;99.90
9265;DHT22;4669;49.594;10.958;2022-12-07T18:35:15;3.70;99.90
9265;DHT22;4669;49.594;10.958;2022-12-07T18:40:17;3.70;99.90
9265;DHT22;4669;49.594;10.958;2022-12-07T18:45:21;3.70;99.90
9265;DHT22;4669;49.594;10.958;2022-12-07T18:50:23;3.70;99.90
9265;DHT22;4669;49.594;10.958;2022-12-07T18:55:25;3.70;99.90
9265;DHT22;4669;49.594;10.958;2022-12-07T19:00:29;3.70;99.90
9265;DHT22;4669;49.594;10.958;2022-12-07T19:05:32;3.70;99.90
9265;DHT22;4669;49.594;10.958;2022-12-07T19:10:35;3.70;99.90
9265;DHT22;4669;49.594;10.958;2022-12-07T19:15:40;3.60;99.90
9265;DHT22;4669;49.594;10.958;2022-12-07T19:20:42;3.70;99.90
9265;DHT22;4669;49.594;10.958;2022-12-07T19:25:44;3.70;99.90
9265;DHT22;4669;49.594;10.958;2022-12-07T19:30:48;3.70;99.90
9265;DHT22;4669;49.594;10.958;2022-12-07T19:35:50;3.60;99.90
9265;DHT22;4669;49.594;10.958;2022-12-07T19:40:52;3.70;99.90
9265;DHT22;4669;49.594;10.958;2022-12-07T19:45:55;3.70;99.90
9265;DHT22;4669;49.594;10.958;2022-12-07T19:51:01;3.60;99.90
9265;DHT22;4669;49.594;10.958;2022-12-07T19:56:04;3.60;99.90
9265;DHT22;4669;49.594;10.958;2022-12-07T20:01:08;3.60;99.90
9265;DHT22;4669;49.594;10.958;2022-12-07T20:06:12;3.60;99.90
9265;DHT22;4669;49.594;10.958;2022-12-07T20:11:16;3.60;99.90
9265;DHT22;4669;49.594;10.958;2022-12-07T20:16:38;3.60;99.90
9265;DHT22;4669;49.594;10.958;2022-12-07T20:21:41;3.70;99.90
9265;DHT22;4669;49.594;10.958;2022-12-07T20:26:44;3.60;99.90
9265;DHT22;4669;49.594;10.958;2022-12-07T20:31:50;3.60;99.90
9265;DHT22;4669;49.594;10.958;2022-12-07T20:36:54;3.50;99.90
9265;DHT22;4669;49.594;10.958;2022-12-07T20:41:56;3.60;99.90
9265;DHT22;4669;49.594;10.958;2022-12-07T20:47:17;3.50;99.90
9265;DHT22;4669;49.594;10.958;2022-12-07T20:52:19;3.50;99.90
9265;DHT22;4669;49.594;10.958;2022-12-07T20:57:22;3.50;99.90
9265;DHT22;4669;49.594;10.958;2022-12-07T21:02:26;3.50;99.90
9265;DHT22;4669;49.594;10.958;2022-12-07T21:07:28;3.50;99.90
9265;DHT22;4669;49.594;10.958;2022-12-07T21:12:30;3.50;99.90
9265;DHT22;4669;49.594;10.958;2022-12-07T21:17:33;3.40;99.90
9265;DHT22;4669;49.594;10.958;2022-12-07T21:22:35;3.40;99.90
9265;DHT22;4669;49.594;10.958;2022-12-07T21:27:37;3.30;99.90
9265;DHT22;4669;49.594;10.958;2022-12-07T21:32:41;3.30;99.90
9265;DHT22;4669;49.594;10.958;2022-12-07T21:37:43;3.30;99.90
9265;DHT22;4669;49.594;10.958;2022-12-07T21:42:45;3.40;99.90
9265;DHT22;4669;49.594;10.958;2022-12-07T21:47:48;3.30;99.90
9265;DHT22;4669;49.594;10.958;2022-12-07T21:52:50;3.30;99.90
9265;DHT22;4669;49.594;10.958;2022-12-07T21:57:52;3.30;99.90
9265;DHT22;4669;49.594;10.958;2022-12-07T22:02:56;3.30;99.90
9265;DHT22;4669;49.594;10.958;2022-12-07T22:07:58;3.30;99.90
9265;DHT22;4669;49.594;10.958;2022-12-07T22:12:59;3.30;99.90
9265;DHT22;4669;49.594;10.958;2022-12-07T22:18:03;3.30;99.90
9265;DHT22;4669;49.594;10.958;2022-12-07T22:23:05;3.30;99.90
9265;DHT22;4669;49.594;10.958;2022-12-07T22:28:07;3.30;99.90
9265;DHT22;4669;49.594;10.958;2022-12-07T22:33:10;3.30;99.90
9265;DHT22;4669;49.594;10.958;2022-12-07T22:38:12;3.30;99.90
9265;DHT22;4669;49.594;10.958;2022-12-07T22:43:15;3.30;99.90
9265;DHT22;4669;49.594;10.958;2022-12-07T22:48:18;3.30;99.90
9265;DHT22;4669;49.594;10.958;2022-12-07T22:53:21;3.30;99.90
9265;DHT22;4669;49.594;10.958;2022-12-07T22:58:23;3.30;99.90
